Time;durP1;ratioP1;P1;durP2;ratioP2;P2;SDS_P1;SDS_P2;PMS_P1;PMS_P2;Temp;Humidity;BMP_temperature;BMP_pressure;BME280_temperature;BME280_humidity;BME280_pressure;Samples;Min_cycle;Max_cycle;Signal;HPM_P1;HPM_P2
2021/04/04 00:01:04;;;;;;;48.03;28.85;;;5.70;97.20;;;;;;5115921;28;20145;-73
2021/04/04 00:03:33;;;;;;;45.97;28.05;;;5.60;97.50;;;;;;5115292;28;20012;-70
2021/04/04 00:05:58;;;;;;;42.28;27.30;;;5.70;97.80;;;;;;5114568;28;20027;-71
2021/04/04 00:08:24;;;;;;;27.80;18.38;;;5.70;97.80;;;;;;5115851;28;20023;-70
2021/04/04 00:10:51;;;;;;;41.10;26.65;;;5.70;98.00;;;;;;5115160;28;20027;-71
2021/04/04 00:13:17;;;;;;;28.27;18.85;;;5.70;97.70;;;;;;5116890;28;20036;-75
2021/04/04 00:15:43;;;;;;;29.90;20.08;;;5.70;97.60;;;;;;5119799;28;20015;-73
2021/04/04 00:18:09;;;;;;;22.75;14.27;;;5.60;97.90;;;;;;5116752;28;20027;-72
2021/04/04 00:20:35;;;;;;;17.85;9.57;;;5.60;97.90;;;;;;5116654;28;20044;-73
2021/04/04 00:23:01;;;;;;;19.17;12.95;;;5.60;97.90;;;;;;5115125;28;20024;-75
2021/04/04 00:25:27;;;;;;;13.65;9.13;;;5.60;97.90;;;;;;5121426;28;20024;-72
2021/04/04 00:27:53;;;;;;;11.02;8.20;;;5.70;97.90;;;;;;5118773;28;20024;-75
2021/04/04 00:30:21;;;;;;;11.63;8.32;;;5.70;97.50;;;;;;5119278;28;20020;-75
2021/04/04 00:32:48;;;;;;;10.88;6.90;;;5.70;97.40;;;;;;5120309;28;20020;-75
2021/04/04 00:35:17;;;;;;;10.68;8.20;;;5.80;97.30;;;;;;5122128;28;20431;-73
2021/04/04 00:37:45;;;;;;;14.57;10.98;;;5.70;97.30;;;;;;5122100;28;20019;-75
2021/04/04 00:40:12;;;;;;;18.70;13.30;;;5.70;97.50;;;;;;5121143;28;20475;-70
2021/04/04 00:42:38;;;;;;;19.70;13.60;;;5.70;97.60;;;;;;5120529;28;20087;-70
2021/04/04 00:45:19;;;;;;;20.42;12.40;;;5.70;97.60;;;;;;5119575;28;20069;-76
2021/04/04 00:47:46;;;;;;;20.45;14.35;;;5.60;97.70;;;;;;5121503;28;20027;-73
2021/04/04 00:50:13;;;;;;;17.88;12.85;;;5.60;97.70;;;;;;5119870;28;20059;-72
2021/04/04 00:52:40;;;;;;;19.42;13.55;;;5.60;97.80;;;;;;5121309;28;20020;-71
2021/04/04 00:55:08;;;;;;;21.15;13.05;;;5.50;97.80;;;;;;5120641;28;20047;-78
2021/04/04 00:57:34;;;;;;;15.25;11.02;;;5.50;97.80;;;;;;5122739;28;20034;-70
2021/04/04 01:00:03;;;;;;;20.83;15.15;;;5.60;98.10;;;;;;5123394;28;20027;-75
2021/04/04 01:02:29;;;;;;;25.13;17.02;;;5.60;97.70;;;;;;5119490;28;20024;-76
2021/04/04 01:04:57;;;;;;;21.27;14.00;;;5.70;97.60;;;;;;5122611;27;20407;-70
2021/04/04 01:07:23;;;;;;;25.80;15.98;;;5.70;97.50;;;;;;5122427;28;20024;-73
2021/04/04 01:09:49;;;;;;;20.10;14.00;;;5.60;97.60;;;;;;5120978;28;20073;-76
2021/04/04 01:12:19;;;;;;;30.83;22.85;;;5.80;97.90;;;;;;5121178;28;20039;-75
2021/04/04 01:14:56;;;;;;;20.10;14.35;;;5.70;97.50;;;;;;5118387;28;20122;-72
2021/04/04 01:17:24;;;;;;;22.63;16.63;;;5.60;97.70;;;;;;5116980;28;20031;-76
2021/04/04 01:20:31;;;;;;;33.05;20.55;;;5.60;97.90;;;;;;5119109;28;20047;-70
2021/04/04 01:23:15;;;;;;;18.83;11.63;;;5.40;98.20;;;;;;5075594;28;20040;-76
2021/04/04 01:25:47;;;;;;;25.65;16.88;;;5.40;98.20;;;;;;5074466;28;20478;-76
2021/04/04 01:28:29;;;;;;;30.60;19.70;;;5.40;98.30;;;;;;5074481;28;20510;-75
2021/04/04 01:30:57;;;;;;;23.95;15.25;;;5.40;98.40;;;;;;5075524;28;20051;-76
2021/04/04 01:33:25;;;;;;;21.98;14.27;;;5.30;98.50;;;;;;5075632;28;20031;-72
2021/04/04 01:35:56;;;;;;;20.98;13.60;;;5.30;98.50;;;;;;5073684;28;20052;-74
2021/04/04 01:38:26;;;;;;;20.02;13.80;;;5.40;98.40;;;;;;5074637;28;20028;-73
2021/04/04 01:41:07;;;;;;;20.50;12.82;;;5.40;98.30;;;;;;5057496;28;20028;-76
2021/04/04 01:43:34;;;;;;;24.98;15.10;;;5.50;98.30;;;;;;5074295;28;20481;-76
2021/04/04 01:46:02;;;;;;;26.95;18.02;;;5.40;98.30;;;;;;5076746;28;20030;-71
2021/04/04 01:48:30;;;;;;;29.83;17.85;;;5.40;98.40;;;;;;5077437;28;20036;-76
2021/04/04 01:50:57;;;;;;;21.27;14.07;;;5.40;98.30;;;;;;5074107;28;20501;-73
2021/04/04 01:53:24;;;;;;;19.75;13.63;;;5.40;98.40;;;;;;5097118;27;20453;-70
2021/04/04 01:55:50;;;;;;;18.00;11.65;;;5.40;98.50;;;;;;5116339;28;20130;-72
2021/04/04 01:58:16;;;;;;;17.15;10.43;;;5.50;98.30;;;;;;5115677;28;20028;-73
2021/04/04 02:00:45;;;;;;;12.35;8.52;;;5.50;98.50;;;;;;5118357;28;20012;-76
2021/04/04 02:03:12;;;;;;;11.85;7.35;;;5.50;98.60;;;;;;5116441;28;20024;-76
2021/04/04 02:05:39;;;;;;;12.35;8.00;;;5.50;98.30;;;;;;5116840;28;20018;-75
2021/04/04 02:08:07;;;;;;;12.07;8.02;;;5.50;98.60;;;;;;5119218;28;20035;-73
2021/04/04 02:10:37;;;;;;;14.32;9.30;;;5.40;98.30;;;;;;5117641;28;20051;-71
2021/04/04 02:13:04;;;;;;;12.85;8.63;;;5.30;98.40;;;;;;5118477;28;20377;-76
2021/04/04 02:15:32;;;;;;;14.23;7.90;;;5.40;98.60;;;;;;5116672;28;20380;-76
2021/04/04 02:17:59;;;;;;;17.20;11.13;;;5.30;98.70;;;;;;5117678;28;20022;-76
2021/04/04 02:20:28;;;;;;;13.57;9.05;;;5.30;98.60;;;;;;5115497;28;20074;-73
2021/04/04 02:22:57;;;;;;;8.88;6.38;;;5.30;98.70;;;;;;5115111;28;20457;-72
2021/04/04 02:25:24;;;;;;;7.82;5.40;;;5.20;98.80;;;;;;5114820;28;20115;-72
2021/04/04 02:27:50;;;;;;;7.93;6.10;;;5.30;98.70;;;;;;5115226;28;20019;-76
2021/04/04 02:30:18;;;;;;;17.42;11.50;;;5.20;99.00;;;;;;5116328;28;20097;-76
2021/04/04 02:32:51;;;;;;;10.57;7.45;;;5.30;98.90;;;;;;5117832;28;20027;-76
2021/04/04 02:35:31;;;;;;;21.58;15.52;;;5.40;99.00;;;;;;5118855;28;20016;-76
2021/04/04 02:38:01;;;;;;;15.73;9.50;;;5.30;98.90;;;;;;5116269;28;20051;-76
2021/04/04 02:40:27;;;;;;;16.20;12.15;;;5.20;98.90;;;;;;5115049;28;20072;-76
2021/04/04 02:42:56;;;;;;;13.43;8.65;;;5.30;98.80;;;;;;5115640;28;20054;-76
2021/04/04 02:45:26;;;;;;;13.77;9.32;;;5.40;98.90;;;;;;5115235;28;20045;-76
2021/04/04 02:48:09;;;;;;;14.30;10.05;;;5.40;99.10;;;;;;5115153;28;20382;-76
2021/04/04 02:50:36;;;;;;;12.82;8.85;;;5.30;98.90;;;;;;5115440;28;20028;-71
2021/04/04 02:53:04;;;;;;;14.65;9.88;;;5.20;99.00;;;;;;5116780;28;20069;-73
2021/04/04 02:55:37;;;;;;;15.13;10.45;;;5.20;98.80;;;;;;5117435;28;20016;-76
2021/04/04 02:58:09;;;;;;;15.75;10.32;;;5.20;98.90;;;;;;5115252;28;20037;-75
2021/04/04 03:00:39;;;;;;;11.18;7.45;;;5.30;99.10;;;;;;5115393;28;20076;-73
2021/04/04 03:03:07;;;;;;;14.70;10.20;;;5.20;99.00;;;;;;5115009;28;20026;-76
2021/04/04 03:05:34;;;;;;;15.18;9.27;;;5.20;99.00;;;;;;5115599;28;20031;-77
2021/04/04 03:08:07;;;;;;;18.25;9.80;;;5.10;99.10;;;;;;5114958;28;20377;-76
2021/04/04 03:10:34;;;;;;;15.02;9.00;;;5.20;99.30;;;;;;5115798;27;20063;-76
2021/04/04 03:13:01;;;;;;;11.77;7.93;;;5.00;99.50;;;;;;5116599;28;20039;-75
2021/04/04 03:15:29;;;;;;;11.85;7.43;;;4.80;99.90;;;;;;5117475;28;20015;-75
2021/04/04 03:17:56;;;;;;;13.90;7.95;;;4.80;99.90;;;;;;5115940;28;20027;-73
2021/04/04 03:20:22;;;;;;;12.93;8.40;;;4.90;99.90;;;;;;5115528;28;20032;-76
2021/04/04 03:22:51;;;;;;;13.10;8.65;;;4.80;99.90;;;;;;5116898;28;20339;-70
2021/04/04 03:25:18;;;;;;;11.48;8.02;;;4.80;99.90;;;;;;5115313;28;20070;-73
2021/04/04 03:27:45;;;;;;;10.02;7.45;;;4.70;99.90;;;;;;5115302;28;20069;-76
2021/04/04 03:33:00;;;;;;;8.68;6.57;;;4.70;99.90;;;;;;5116775;28;20092;-70
2021/04/04 03:35:27;;;;;;;10.73;6.18;;;4.70;99.90;;;;;;5117572;28;20019;-74
2021/04/04 03:37:54;;;;;;;9.27;5.97;;;4.70;99.90;;;;;;5115891;28;20488;-75
2021/04/04 03:40:21;;;;;;;9.32;7.00;;;4.60;99.90;;;;;;5116167;28;20008;-76
2021/04/04 03:42:49;;;;;;;8.57;6.00;;;4.70;99.90;;;;;;5113373;28;20587;-76
2021/04/04 03:45:19;;;;;;;9.77;6.70;;;4.80;99.90;;;;;;5113702;28;20059;-76
2021/04/04 03:47:47;;;;;;;9.20;6.80;;;4.80;99.90;;;;;;5114167;28;20488;-73
2021/04/04 03:50:18;;;;;;;8.65;6.93;;;4.70;99.90;;;;;;5114365;28;20120;-75
2021/04/04 03:52:46;;;;;;;10.45;7.57;;;4.80;99.90;;;;;;5115004;28;20020;-71
2021/04/04 03:55:16;;;;;;;9.52;6.35;;;4.70;99.90;;;;;;5115063;28;20446;-77
2021/04/04 03:57:44;;;;;;;9.98;7.32;;;4.80;99.90;;;;;;5115939;28;20040;-72
2021/04/04 04:00:11;;;;;;;12.88;8.07;;;4.70;99.90;;;;;;5117342;28;20497;-76
2021/04/04 04:02:38;;;;;;;12.93;7.85;;;4.80;99.90;;;;;;5118091;28;20020;-76
2021/04/04 04:05:05;;;;;;;29.98;19.92;;;4.70;99.90;;;;;;5119186;28;20023;-75
2021/04/04 04:07:33;;;;;;;17.95;12.45;;;4.70;99.90;;;;;;5118200;28;20094;-76
2021/04/04 04:10:01;;;;;;;24.73;14.02;;;4.50;99.90;;;;;;5118557;28;20477;-70
2021/04/04 04:12:32;;;;;;;24.92;14.13;;;4.60;99.90;;;;;;5118513;27;20027;-75
2021/04/04 04:14:59;;;;;;;28.50;16.52;;;4.50;99.90;;;;;;5119019;28;20085;-75
2021/04/04 04:17:26;;;;;;;29.50;18.75;;;4.50;99.90;;;;;;5117447;28;20034;-73
2021/04/04 04:19:52;;;;;;;22.38;13.68;;;4.70;99.90;;;;;;5119266;28;20086;-73
2021/04/04 04:22:20;;;;;;;15.48;9.27;;;4.50;99.90;;;;;;5117217;28;20019;-76
2021/04/04 04:24:48;;;;;;;27.02;17.70;;;4.60;99.90;;;;;;5117794;28;20016;-76
2021/04/04 04:27:16;;;;;;;23.00;14.63;;;4.50;99.90;;;;;;5118908;28;20027;-73
2021/04/04 04:29:49;;;;;;;25.38;14.00;;;4.70;99.90;;;;;;5117848;28;20485;-76
2021/04/04 04:32:20;;;;;;;21.70;12.10;;;4.60;99.90;;;;;;5117777;28;20019;-76
2021/04/04 04:34:47;;;;;;;18.60;11.93;;;4.70;99.90;;;;;;5118156;28;20023;-72
2021/04/04 04:37:14;;;;;;;19.30;12.48;;;4.70;99.90;;;;;;5117927;28;20028;-77
2021/04/04 04:39:42;;;;;;;17.00;11.02;;;4.70;99.90;;;;;;5119711;28;20503;-71
2021/04/04 04:42:12;;;;;;;14.98;9.95;;;4.80;99.90;;;;;;5117357;28;20027;-76
2021/04/04 04:44:46;;;;;;;29.15;18.42;;;4.80;99.90;;;;;;5117371;28;20015;-70
2021/04/04 04:47:13;;;;;;;16.27;11.77;;;4.80;99.90;;;;;;5117676;28;20471;-76
2021/04/04 04:49:43;;;;;;;16.85;10.82;;;4.90;99.90;;;;;;5118273;28;20106;-72
2021/04/04 04:52:13;;;;;;;24.40;16.00;;;5.00;99.90;;;;;;5117464;27;20034;-76
2021/04/04 04:54:43;;;;;;;20.55;12.75;;;5.00;99.90;;;;;;5117530;28;20088;-76
2021/04/04 04:57:11;;;;;;;24.88;17.63;;;5.10;99.90;;;;;;5118192;28;20035;-76
2021/04/04 04:59:37;;;;;;;40.38;24.17;;;5.10;99.90;;;;;;5116614;28;20027;-73
2021/04/04 05:02:06;;;;;;;17.95;11.38;;;5.20;99.90;;;;;;5117960;28;20415;-76
2021/04/04 05:04:33;;;;;;;20.38;12.30;;;5.10;99.90;;;;;;5118082;28;20015;-72
2021/04/04 05:07:00;;;;;;;16.67;10.18;;;5.00;99.90;;;;;;5116842;28;20027;-76
2021/04/04 05:09:28;;;;;;;18.25;11.30;;;5.00;99.90;;;;;;5116903;28;20342;-76
2021/04/04 05:11:56;;;;;;;17.55;11.80;;;5.00;99.90;;;;;;5116975;28;20024;-73
2021/04/04 05:14:22;;;;;;;19.73;11.98;;;5.00;99.90;;;;;;5117650;28;20027;-76
2021/04/04 05:16:52;;;;;;;15.52;9.90;;;5.10;99.90;;;;;;5116759;28;20028;-76
2021/04/04 05:19:18;;;;;;;16.00;10.63;;;5.20;99.90;;;;;;5117194;28;20513;-76
2021/04/04 05:21:44;;;;;;;18.55;10.50;;;5.30;99.90;;;;;;5117792;28;20020;-74
2021/04/04 05:24:15;;;;;;;22.15;12.07;;;5.40;99.90;;;;;;5116993;28;20019;-76
2021/04/04 05:26:44;;;;;;;14.13;8.90;;;5.40;99.90;;;;;;5116631;27;20373;-77
2021/04/04 05:29:13;;;;;;;16.88;10.02;;;5.40;99.90;;;;;;5116291;28;20078;-76
2021/04/04 05:31:55;;;;;;;20.02;10.13;;;5.50;99.90;;;;;;5116388;28;20031;-76
2021/04/04 05:34:27;;;;;;;23.77;11.68;;;5.50;99.90;;;;;;5115367;28;20052;-76
2021/04/04 05:36:54;;;;;;;29.88;12.98;;;5.50;99.90;;;;;;5116474;27;20047;-76
2021/04/04 05:39:23;;;;;;;45.35;17.98;;;5.40;99.90;;;;;;5116684;28;20036;-72
2021/04/04 05:41:58;;;;;;;14.15;9.45;;;5.50;99.90;;;;;;5116814;28;20015;-76
2021/04/04 05:44:30;;;;;;;37.65;16.63;;;5.40;99.90;;;;;;5117518;28;20361;-76
2021/04/04 05:47:03;;;;;;;18.20;10.20;;;5.40;99.90;;;;;;5116289;28;20030;-74
2021/04/04 05:49:42;;;;;;;16.85;10.48;;;5.30;99.90;;;;;;5115761;28;20023;-76
2021/04/04 05:52:20;;;;;;;35.33;15.82;;;5.30;99.90;;;;;;5117821;27;20064;-76
2021/04/04 05:55:11;;;;;;;38.97;15.52;;;5.50;99.90;;;;;;5118771;28;20466;-74
2021/04/04 05:58:01;;;;;;;36.70;16.27;;;5.50;99.90;;;;;;5116149;28;20027;-76
2021/04/04 06:00:32;;;;;;;37.38;17.30;;;5.60;99.90;;;;;;5116887;28;20419;-75
2021/04/04 06:03:23;;;;;;;34.63;17.80;;;5.80;99.90;;;;;;5115942;28;20026;-73
2021/04/04 06:05:59;;;;;;;51.90;24.42;;;5.80;99.90;;;;;;5116776;28;20020;-75
2021/04/04 06:08:50;;;;;;;64.50;34.85;;;5.90;99.90;;;;;;5116291;28;20036;-73
2021/04/04 06:11:31;;;;;;;73.63;30.70;;;6.00;99.90;;;;;;5116776;28;20111;-72
2021/04/04 06:14:28;;;;;;;63.15;25.75;;;5.80;99.90;;;;;;5115909;28;20401;-76
2021/04/04 06:17:02;;;;;;;51.95;21.40;;;5.80;99.90;;;;;;5115648;27;20024;-76
2021/04/04 06:20:02;;;;;;;68.53;23.50;;;5.80;99.90;;;;;;5115720;28;20052;-76
2021/04/04 06:22:49;;;;;;;58.75;23.17;;;5.60;99.90;;;;;;5115175;28;20268;-71
2021/04/04 06:25:41;;;;;;;97.80;31.77;;;5.60;99.90;;;;;;5115567;28;20059;-71
2021/04/04 06:28:43;;;;;;;33.08;15.50;;;5.50;99.90;;;;;;5097242;28;20036;-72
2021/04/04 06:31:13;;;;;;;35.83;17.20;;;5.60;99.90;;;;;;5120612;28;20020;-74
2021/04/04 06:33:45;;;;;;;61.63;24.35;;;5.60;99.90;;;;;;5118730;28;20476;-73
2021/04/04 06:36:37;;;;;;;92.32;33.63;;;5.70;99.90;;;;;;5118851;28;20477;-72
2021/04/04 06:39:05;;;;;;;90.93;33.13;;;5.80;99.90;;;;;;5117980;28;20469;-73
2021/04/04 06:41:37;;;;;;;61.90;28.65;;;5.70;99.90;;;;;;5118341;28;20084;-72
2021/04/04 06:44:24;;;;;;;56.33;26.00;;;5.70;99.90;;;;;;5116648;28;20499;-74
2021/04/04 06:46:58;;;;;;;50.40;24.10;;;5.70;99.90;;;;;;5118935;28;20015;-71
2021/04/04 06:49:39;;;;;;;35.10;18.02;;;5.70;99.90;;;;;;5118403;28;20010;-70
2021/04/04 06:52:34;;;;;;;65.07;30.80;;;5.80;99.90;;;;;;5116093;28;20028;-73
2021/04/04 06:55:33;;;;;;;43.20;24.35;;;5.80;99.90;;;;;;5117403;28;20027;-74
2021/04/04 06:58:02;;;;;;;27.90;16.50;;;5.70;99.90;;;;;;5114579;28;20104;-74
2021/04/04 07:00:53;;;;;;;17.73;11.57;;;5.90;99.90;;;;;;5115258;28;20020;-72
2021/04/04 07:03:22;;;;;;;26.42;15.85;;;5.90;99.90;;;;;;5117317;28;20546;-70
2021/04/04 07:05:56;;;;;;;33.90;19.00;;;6.00;99.90;;;;;;5118460;28;20491;-73
2021/04/04 07:08:53;;;;;;;29.88;15.82;;;6.00;99.90;;;;;;5116683;28;20028;-70
2021/04/04 07:11:33;;;;;;;25.27;13.60;;;6.10;99.90;;;;;;5114336;28;20465;-76
2021/04/04 07:14:21;;;;;;;26.13;17.48;;;6.10;99.90;;;;;;5115001;28;20501;-74
2021/04/04 07:17:05;;;;;;;23.90;16.33;;;6.30;99.90;;;;;;5115495;28;20024;-72
2021/04/04 07:19:49;;;;;;;16.75;11.00;;;6.40;99.90;;;;;;5116236;28;20052;-70
2021/04/04 07:22:22;;;;;;;19.05;12.93;;;6.30;99.90;;;;;;5116715;28;20485;-72
2021/04/04 07:25:03;;;;;;;15.50;10.48;;;6.30;99.90;;;;;;5115159;28;20032;-70
2021/04/04 07:27:55;;;;;;;32.63;19.13;;;6.30;99.90;;;;;;5115880;28;20015;-72
2021/04/04 07:30:39;;;;;;;130.13;51.25;;;6.10;99.90;;;;;;5115787;28;20477;-71
2021/04/04 07:33:25;;;;;;;33.22;19.60;;;6.30;99.90;;;;;;5115506;28;20027;-70
2021/04/04 07:36:07;;;;;;;36.03;19.08;;;6.40;99.90;;;;;;5116246;28;20381;-73
2021/04/04 07:38:45;;;;;;;29.63;19.02;;;6.40;99.90;;;;;;5119195;28;20031;-73
2021/04/04 07:41:27;;;;;;;17.60;11.13;;;6.40;99.90;;;;;;5118035;28;20019;-74
2021/04/04 07:44:16;;;;;;;21.00;13.48;;;6.50;99.90;;;;;;5118329;28;20026;-69
2021/04/04 07:46:55;;;;;;;15.82;10.73;;;6.40;99.90;;;;;;5115952;28;20032;-72
2021/04/04 07:49:33;;;;;;;12.52;9.07;;;6.50;99.90;;;;;;5118278;28;20042;-77
2021/04/04 07:52:04;;;;;;;15.52;10.35;;;6.50;99.90;;;;;;5118033;28;20032;-73
2021/04/04 07:54:46;;;;;;;30.65;15.80;;;6.70;99.90;;;;;;5116761;28;20106;-76
2021/04/04 07:57:38;;;;;;;14.30;9.82;;;;;;;;;;5115833;28;20351;-73
2021/04/04 08:00:07;;;;;;;16.85;10.50;;;6.90;99.90;;;;;;5034759;28;20041;-73
2021/04/04 08:02:40;;;;;;;19.25;13.73;;;6.90;99.70;;;;;;5032814;28;20060;-74
2021/04/04 08:05:09;;;;;;;26.45;15.07;;;6.80;99.50;;;;;;5015360;28;20527;-74
2021/04/04 08:07:45;;;;;;;41.90;27.65;;;;;;;;;;5032023;28;20110;-73
2021/04/04 08:10:30;;;;;;;36.55;24.52;;;7.30;98.90;;;;;;5014694;28;20496;-75
2021/04/04 08:13:19;;;;;;;19.17;12.38;;;7.30;99.70;;;;;;5032626;28;20030;-75
2021/04/04 08:15:53;;;;;;;22.80;14.93;;;7.30;98.70;;;;;;5032116;28;20034;-72
2021/04/04 08:18:19;;;;;;;47.65;29.67;;;7.30;99.00;;;;;;5033161;28;20116;-70
2021/04/04 08:20:50;;;;;;;21.98;15.70;;;7.30;99.10;;;;;;5034095;28;20045;-76
2021/04/04 08:23:45;;;;;;;17.10;13.30;;;7.10;99.30;;;;;;5032863;28;20030;-75
2021/04/04 08:26:35;;;;;;;17.13;10.95;;;7.20;99.60;;;;;;5033984;28;20025;-75
2021/04/04 08:29:23;;;;;;;32.55;20.35;;;7.20;99.20;;;;;;5033195;28;20030;-73
2021/04/04 08:31:59;;;;;;;37.47;27.60;;;7.40;99.80;;;;;;5032799;28;20424;-76
2021/04/04 08:34:37;;;;;;;38.03;26.50;;;7.10;99.20;;;;;;5033804;28;20105;-70
2021/04/04 08:37:14;;;;;;;101.03;63.63;;;7.30;99.40;;;;;;5071244;28;20085;-71
2021/04/04 08:39:47;;;;;;;116.30;94.32;;;7.20;99.30;;;;;;5114512;28;20400;-75
2021/04/04 08:42:17;;;;;;;28.83;21.23;;;7.30;99.60;;;;;;5114325;28;20076;-75
2021/04/04 08:44:58;;;;;;;48.85;41.17;;;7.60;99.30;;;;;;5115460;28;20050;-77
2021/04/04 08:47:29;;;;;;;32.85;25.48;;;7.50;98.70;;;;;;5117695;28;20035;-76
2021/04/04 08:49:57;;;;;;;19.80;13.88;;;7.70;98.80;;;;;;5116030;28;20035;-73
2021/04/04 08:52:36;;;;;;;17.08;11.73;;;7.60;98.70;;;;;;5117576;28;20088;-71
2021/04/04 08:55:02;;;;;;;12.75;9.02;;;7.40;98.80;;;;;;5116987;28;20024;-70
2021/04/04 08:57:43;;;;;;;12.25;9.52;;;7.40;98.50;;;;;;5117167;27;20072;-71
2021/04/04 09:00:11;;;;;;;10.27;8.57;;;7.40;98.70;;;;;;5116824;28;20476;-73
2021/04/04 09:02:55;;;;;;;15.70;11.38;;;7.50;98.40;;;;;;5116684;28;20052;-74
2021/04/04 09:05:25;;;;;;;23.58;15.85;;;7.60;98.60;;;;;;5118152;28;20019;-74
2021/04/04 09:07:59;;;;;;;18.25;12.65;;;7.60;99.00;;;;;;5117677;28;20377;-75
2021/04/04 09:10:29;;;;;;;14.07;9.88;;;7.30;98.50;;;;;;5115651;28;20027;-72
2021/04/04 09:12:57;;;;;;;16.73;11.02;;;7.30;98.60;;;;;;5115530;28;20374;-72
2021/04/04 09:15:25;;;;;;;13.98;9.80;;;7.50;99.10;;;;;;5116801;28;20365;-75
2021/04/04 09:17:57;;;;;;;14.82;11.45;;;7.60;98.70;;;;;;5117066;28;20019;-72
2021/04/04 09:20:40;;;;;;;22.58;15.63;;;7.70;98.40;;;;;;5116854;28;20114;-76
2021/04/04 09:23:07;;;;;;;17.25;12.15;;;8.00;98.70;;;;;;5117122;28;20111;-72
2021/04/04 09:25:36;;;;;;;20.98;14.43;;;8.00;98.10;;;;;;5115242;28;20047;-69
2021/04/04 09:28:07;;;;;;;17.00;11.73;;;8.00;97.80;;;;;;5116887;28;20428;-75
2021/04/04 09:30:40;;;;;;;20.63;13.30;;;8.20;98.50;;;;;;5116550;28;20077;-75
2021/04/04 09:33:10;;;;;;;10.30;7.60;;;8.10;97.10;;;;;;5117209;28;20077;-70
2021/04/04 09:35:37;;;;;;;18.45;12.43;;;;;;;;;;5116906;28;20362;-70
2021/04/04 09:38:07;;;;;;;13.60;8.80;;;8.50;97.20;;;;;;5116760;28;20019;-74
2021/04/04 09:40:34;;;;;;;11.30;8.48;;;8.90;96.80;;;;;;5116336;28;20421;-74
2021/04/04 09:43:07;;;;;;;11.07;8.25;;;8.90;96.10;;;;;;5117320;28;20042;-74
2021/04/04 09:45:34;;;;;;;15.35;11.68;;;9.10;95.40;;;;;;5115453;28;20020;-74
2021/04/04 09:48:20;;;;;;;17.35;12.65;;;9.10;96.20;;;;;;5116244;28;20032;-74
2021/04/04 09:50:47;;;;;;;20.80;13.05;;;9.10;96.40;;;;;;5116281;28;20028;-70
2021/04/04 09:53:39;;;;;;;19.30;12.00;;;9.30;96.20;;;;;;5116914;28;20377;-76
2021/04/04 09:56:10;;;;;;;9.82;7.68;;;9.30;96.30;;;;;;5117127;28;20020;-73
2021/04/04 09:58:47;;;;;;;10.95;8.15;;;9.00;95.30;;;;;;5116388;28;20020;-71
2021/04/04 10:01:32;;;;;;;10.45;8.10;;;9.20;96.40;;;;;;5115523;28;20024;-77
2021/04/04 10:04:08;;;;;;;676.35;288.27;;;9.40;95.60;;;;;;5114874;28;20049;-75
2021/04/04 10:06:36;;;;;;;71.97;46.95;;;9.60;94.50;;;;;;5116326;27;20032;-73
2021/04/04 10:09:08;;;;;;;19.75;13.07;;;9.40;93.40;;;;;;5116152;28;20073;-71
2021/04/04 10:11:35;;;;;;;11.32;8.57;;;9.30;94.50;;;;;;5116155;28;20031;-79
2021/04/04 10:14:16;;;;;;;10.77;8.57;;;9.60;93.70;;;;;;5118486;28;20035;-78
2021/04/04 10:16:43;;;;;;;9.25;8.00;;;9.90;93.10;;;;;;5118082;28;20020;-79
2021/04/04 10:19:12;;;;;;;9.23;7.03;;;9.90;93.50;;;;;;5115483;28;20044;-76
2021/04/04 10:21:59;;;;;;;8.77;7.25;;;10.00;92.10;;;;;;5116962;28;20059;-77
2021/04/04 10:24:30;;;;;;;13.00;9.85;;;10.30;92.90;;;;;;5117558;28;20027;-77
2021/04/04 10:27:25;;;;;;;11.57;8.73;;;10.40;92.50;;;;;;5116890;28;20480;-72
2021/04/04 10:30:16;;;;;;;8.98;7.28;;;10.60;92.20;;;;;;5116033;28;20020;-78
2021/04/04 10:32:42;;;;;;;11.25;8.68;;;10.90;91.80;;;;;;5115495;28;20036;-78
2021/04/04 10:35:10;;;;;;;12.20;8.80;;;11.00;91.20;;;;;;5115704;28;20437;-77
2021/04/04 10:37:37;;;;;;;13.23;10.68;;;11.20;91.50;;;;;;5115383;28;20024;-77
2021/04/04 10:40:09;;;;;;;9.32;7.25;;;11.50;91.50;;;;;;5115447;28;20043;-77
2021/04/04 10:42:36;;;;;;;9.55;7.53;;;11.40;87.70;;;;;;5115269;28;20020;-74
2021/04/04 10:45:20;;;;;;;12.93;9.95;;;10.90;87.80;;;;;;5115020;28;20019;-78
2021/04/04 10:47:46;;;;;;;9.63;8.32;;;10.80;90.50;;;;;;5115552;28;20053;-70
2021/04/04 10:50:15;;;;;;;24.25;16.20;;;10.30;91.20;;;;;;5114673;28;20156;-76
2021/04/04 10:52:44;;;;;;;20.75;12.93;;;9.80;92.50;;;;;;5114703;28;20028;-73
2021/04/04 10:55:11;;;;;;;14.88;11.85;;;9.30;92.50;;;;;;5114860;28;20016;-75
2021/04/04 10:57:39;;;;;;;18.35;13.35;;;9.20;93.20;;;;;;5114783;28;20043;-75
2021/04/04 11:00:07;;;;;;;22.67;15.68;;;9.20;95.20;;;;;;5114924;28;20101;-73
2021/04/04 11:02:36;;;;;;;31.70;19.58;;;9.00;96.30;;;;;;5114557;28;20073;-76
2021/04/04 11:05:04;;;;;;;24.73;17.55;;;9.10;96.20;;;;;;5113309;28;20020;-76
2021/04/04 11:07:32;;;;;;;21.05;15.18;;;9.00;97.20;;;;;;5115226;28;20012;-76
2021/04/04 11:09:58;;;;;;;15.32;10.23;;;9.30;96.20;;;;;;5113629;28;20110;-76
2021/04/04 11:12:25;;;;;;;22.33;13.27;;;9.40;95.20;;;;;;5114306;28;20103;-76
2021/04/04 11:14:54;;;;;;;18.67;13.40;;;9.70;95.40;;;;;;5114464;28;20027;-76
2021/04/04 11:17:22;;;;;;;9.45;7.82;;;9.80;95.10;;;;;;5114635;28;20019;-76
2021/04/04 11:19:50;;;;;;;9.63;8.40;;;9.90;92.10;;;;;;5114008;28;20397;-76
2021/04/04 11:22:21;;;;;;;19.35;13.68;;;9.80;92.10;;;;;;5114602;28;20019;-71
2021/04/04 11:25:02;;;;;;;17.17;11.05;;;9.60;92.70;;;;;;5114196;27;20081;-76
2021/04/04 11:27:50;;;;;;;18.10;12.43;;;9.70;93.60;;;;;;5114146;28;20024;-76
2021/04/04 11:30:37;;;;;;;25.73;17.15;;;9.80;93.90;;;;;;5114306;28;20109;-77
2021/04/04 11:33:18;;;;;;;20.88;14.32;;;10.30;93.80;;;;;;5114197;28;20063;-76
2021/04/04 11:36:03;;;;;;;9.98;7.80;;;11.10;94.40;;;;;;5113963;28;20016;-76
2021/04/04 11:38:32;;;;;;;11.13;8.60;;;10.80;90.00;;;;;;5114291;28;20072;-75
2021/04/04 11:41:19;;;;;;;27.58;19.58;;;10.50;87.60;;;;;;5114145;28;20015;-76
2021/04/04 11:44:13;;;;;;;12.88;10.02;;;11.10;91.20;;;;;;5114153;28;20480;-71
2021/04/04 11:46:41;;;;;;;26.15;16.92;;;11.10;88.80;;;;;;5114344;28;20020;-76
2021/04/04 11:49:33;;;;;;;28.98;17.92;;;10.70;91.10;;;;;;5114627;28;20476;-71
2021/04/04 11:52:21;;;;;;;34.38;20.83;;;10.20;90.70;;;;;;5108208;28;20039;-75
2021/04/04 11:54:50;;;;;;;44.03;23.85;;;9.90;90.40;;;;;;5071197;28;20048;-75
2021/04/04 11:57:32;;;;;;;19.75;12.43;;;9.50;90.30;;;;;;5054524;28;20028;-75
2021/04/04 12:00:15;;;;;;;24.45;15.75;;;9.60;90.70;;;;;;5070778;28;20151;-76
2021/04/04 12:03:01;;;;;;;11.57;8.05;;;9.90;92.50;;;;;;5071343;28;20039;-75
2021/04/04 12:05:36;;;;;;;18.75;9.45;;;10.00;91.70;;;;;;5072272;28;20054;-78
2021/04/04 12:08:04;;;;;;;16.05;9.35;;;9.50;91.40;;;;;;5071253;28;20204;-72
2021/04/04 12:10:37;;;;;;;15.80;10.23;;;9.30;91.70;;;;;;5071096;28;20031;-70
2021/04/04 12:13:15;;;;;;;22.80;14.40;;;9.10;93.50;;;;;;5071586;28;20482;-75
2021/04/04 12:15:44;;;;;;;17.75;10.43;;;9.00;94.10;;;;;;5071097;28;20448;-75
2021/04/04 12:18:10;;;;;;;120.43;73.28;;;8.50;95.00;;;;;;5071865;28;20037;-74
2021/04/04 12:20:39;;;;;;;16.60;10.23;;;8.40;95.40;;;;;;5072661;28;20051;-76
2021/04/04 12:23:12;;;;;;;41.42;21.48;;;8.00;95.20;;;;;;5075820;28;20082;-75
2021/04/04 12:25:39;;;;;;;273.92;102.95;;;8.10;96.10;;;;;;5074931;28;20118;-76
2021/04/04 12:28:05;;;;;;;195.45;66.60;;;8.10;96.30;;;;;;5075205;28;20044;-70
2021/04/04 12:30:37;;;;;;;270.70;83.45;;;8.10;96.90;;;;;;5074831;28;20025;-76
2021/04/04 12:33:11;;;;;;;589.40;206.50;;;8.10;96.60;;;;;;5097957;28;20138;-70
2021/04/04 12:35:49;;;;;;;205.70;135.20;;;8.20;97.50;;;;;;5096197;28;20020;-75
2021/04/04 12:38:28;;;;;;;75.57;44.25;;;8.00;94.70;;;;;;5097418;28;20020;-75
2021/04/04 12:40:56;;;;;;;61.38;38.70;;;8.00;95.70;;;;;;5096964;28;20096;-76
2021/04/04 12:43:23;;;;;;;31.30;19.52;;;8.10;96.10;;;;;;5097150;28;20016;-75
2021/04/04 12:45:49;;;;;;;44.58;29.08;;;8.10;95.40;;;;;;5097440;28;20367;-75
2021/04/04 12:48:17;;;;;;;36.45;20.58;;;8.30;96.00;;;;;;5095297;28;20027;-76
2021/04/04 12:51:04;;;;;;;38.63;24.92;;;;;;;;;;5096660;28;20016;-76
2021/04/04 12:53:33;;;;;;;27.30;17.30;;;8.70;95.40;;;;;;5096820;28;20105;-75
2021/04/04 12:56:00;;;;;;;21.55;12.63;;;8.90;95.90;;;;;;5096782;28;20012;-76
2021/04/04 12:58:35;;;;;;;25.45;13.75;;;9.20;95.10;;;;;;5096773;28;20016;-70
2021/04/04 13:01:03;;;;;;;16.85;10.82;;;9.80;96.30;;;;;;5096686;28;20085;-75
2021/04/04 13:03:36;;;;;;;12.15;8.65;;;10.30;94.90;;;;;;5096358;28;20073;-76
2021/04/04 13:06:03;;;;;;;13.30;9.57;;;10.50;92.00;;;;;;5096996;28;20020;-70
2021/04/04 13:08:32;;;;;;;11.02;7.50;;;11.20;94.10;;;;;;5096370;28;20103;-76
2021/04/04 13:11:02;;;;;;;12.65;8.35;;;11.60;90.50;;;;;;5096718;28;20020;-75
2021/04/04 13:13:30;;;;;;;11.93;8.38;;;;;;;;;;5095015;28;20036;-76